Hellhole Canyon (1030) Station Data

Red Flag Warning: No
Fire Weather Zone: 250
SDGE Region: North East
Lat/Lon: 33.224/-116.924

Observations

Time Wind Speed/Gust Temp(F) RH Fuel Moist Fuel Temp(F) Dewpt(F) Tmax(F) Tmin(F) Accum Precip 10-min Precip SL Press(mb)
6/22 4:50am 51 2 G 3 76° 35% - - 47° 79.2° 68.2° - - 1006.0
6/22 4:40am 65 2 G 3 75° 37% - - 47° 79.2° 68.2° - - 1006.0
6/22 4:30am 79 2 G 3 74° 41% - - 49° 79.2° 68.2° - - 1006.0
6/22 4:20am 63 3 G 3 73° 43% - - 50° 79.2° 68.2° - - 1006.0
6/22 4:10am 65 3 G 4 72° 46% - - 51° 79.2° 68.2° - - 1007.0
6/22 4:00am 57 3 G 4 71° 48% - - 50° 79.2° 68.2° - - 1007.0
6/22 3:50am 72 1 G 3 70° 52% - - 52° 79.2° 68.2° - - 1007.0
6/22 3:40am 15 0 G 0 71° 53% - - 53° 79.2° 68.2° - - 1007.0
6/22 3:30am 19 1 G 2 70° 54% - - 53° 79.2° 68.2° - - 1007.0
6/22 3:20am 80 1 G 1 70° 51% - - 51° 79.2° 68.2° - - 1007.0
6/22 3:10am 67 1 G 1 69° 54% - - 52° 79.2° 68.2° - - 1007.0
6/22 3:00am 102 1 G 2 69° 55% - - 52° 79.2° 68.2° - - 1007.0
6/22 2:50am 283 4 G 5 70° 55% - - 53° 79.2° 69.7° - - 1007.0
6/22 2:40am 277 2 G 4 73° 45% - - 50° 79.2° 70.3° - - 1007.0
6/22 2:30am 279 1 G 2 74° 41% - - 49° 79.2° 73.4° - - 1007.0
6/22 2:20am 193 1 G 2 76° 39% - - 49° 79.2° 74° - - 1007.0
6/22 2:10am 73 1 G 2 77° 38% - - 50° 79.2° 74° - - 1006.0
6/22 2:00am 69 2 G 3 77° 37% - - 48° 79.2° 74° - - 1007.0
6/22 1:50am 60 3 G 4 77° 41% - - 51° 79.2° 74° - - 1007.0
6/22 1:40am 51 3 G 4 75° 44% - - 51° 79.2° 74° - - 1007.0
6/22 1:30am 64 3 G 4 75° 42% - - 50° 79.2° 74° - - 1007.0
6/22 1:20am 53 1 G 2 75° 52% - - 56° 79.2° 74° - - 1007.0
6/22 1:10am 46 0 G 1 75° 52% - - 56° 79.2° 74° - - 1007.0
6/22 1:00am 30 1 G 2 74° 53% - - 56° 79.2° 74° - - 1007.0
6/22 12:50am 321 1 G 2 75° 51% - - 56° 79.2° 74.4° - - 1007.0
6/22 12:40am 292 1 G 3 77° 48% - - 56° 79.2° 75.8° - - 1007.0
6/22 12:30am 76 1 G 2 77° 47% - - 55° 79.2° 75.8° - - 1007.0
6/22 12:20am 47 1 G 1 76° 50% - - 56° 79.2° 75.8° - - 1007.0
6/22 12:10am 266 1 G 2 78° 48% - - 57° 79.2° 77.3° - - 1007.0
6/22 12:00am 41 2 G 3 80° 44% - - 56° 98.7° 74.1° - - 1006.0
6/21 11:50pm 71 1 G 2 79° 47% - - 57° 98.7° 74.1° - - 1007.0
6/21 11:40pm 56 2 G 3 79° 49% - - 58° 98.7° 74.1° - - 1007.0
6/21 11:30pm 65 1 G 2 79° 49% - - 58° 98.7° 74.1° - - 1007.0
6/21 11:20pm 69 1 G 2 79° 49% - - 58° 98.7° 74.1° - - 1007.0
6/21 11:10pm 71 1 G 2 79° 50% - - 58° 98.7° 74.1° - - 1007.0
6/21 11:00pm 67 1 G 2 79° 50% - - 58° 98.7° 74.1° - - 1007.0
6/21 10:50pm 46 1 G 2 78° 49% - - 58° 98.7° 74.1° - - 1007.0
6/21 10:40pm 265 1 G 2 79° 45% - - 56° 98.7° 74.1° - - 1007.0
6/21 10:30pm 254 1 G 2 80° 43% - - 56° 98.7° 74.1° - - 1007.0
6/21 10:20pm 46 2 G 3 81° 38% - - 53° 98.7° 74.1° - - 1006.0
6/21 10:10pm 52 3 G 4 81° 36% - - 51° 98.7° 74.1° - - 1007.0
6/21 10:00pm 54 4 G 4 78° 42% - - 53° 98.7° 74.1° - - 1007.0
6/21 9:50pm 64 3 G 3 76° 50% - - 56° 98.7° 74.1° - - 1007.0
6/21 9:40pm 74 3 G 3 75° 56% - - 58° 98.7° 74.1° - - 1007.0
6/21 9:30pm 58 2 G 3 75° 59% - - 59° 98.7° 74.1° - - 1007.0
6/21 9:20pm 52 0 G 2 74° 59% - - 59° 98.7° 74.1° - - 1007.0
6/21 9:10pm 34 0 G 1 75° 59% - - 59° 98.7° 74.4° - - 1007.0
6/21 9:00pm 274 1 G 2 75° 58% - - 59° 98.7° 74.8° - - 1007.0
6/21 8:50pm 272 3 G 4 76° 56% - - 59° 98.7° 75.4° - - 1006.0
6/21 8:40pm 287 4 G 4 78° 53% - - 60° 98.7° 77.2° - - 1006.0
6/21 8:30pm 286 1 G 3 79° 51% - - 60° 98.7° 77.2° - - 1006.0
6/21 8:20pm 355 0 G 2 80° 51% - - 60° 98.7° 77.2° - - 1006.0
6/21 8:10pm 314 1 G 3 80° 50% - - 60° 98.7° 77.2° - - 1006.0
6/21 8:00pm 302 4 G 5 81° 49% - - 60° 98.7° 77.2° - - 1006.0
6/21 7:50pm 295 4 G 5 82° 48% - - 60° 98.7° 77.2° - - 1006.0
6/21 7:40pm 279 3 G 6 83° 46% - - 60° 98.7° 77.2° - - 1005.0
6/21 7:30pm 280 5 G 7 84° 45% - - 60° 98.7° 77.2° - - 1005.0
6/21 7:20pm 280 6 G 9 85° 43% - - 60° 98.7° 77.2° - - 1005.0
6/21 7:10pm 268 6 G 9 86° 40% - - 60° 98.7° 77.2° - - 1005.0
6/21 7:00pm 271 8 G 10 87° 38% - - 59° 98.7° 77.2° - - 1005.0
6/21 6:50pm 280 7 G 10 88° 37% - - 58° 98.7° 77.2° - - 1005.0
6/21 6:40pm 275 7 G 11 88° 36% - - 58° 98.7° 77.2° - - 1004.0
6/21 6:30pm 273 7 G 11 89° 36% - - 58° 98.7° 77.2° - - 1005.0
6/21 6:20pm 282 7 G 12 89° 36% - - 58° 98.7° 77.2° - - 1005.0
6/21 6:10pm 272 8 G 12 89° 36% - - 59° 98.7° 77.2° - - 1005.0
6/21 6:00pm 274 8 G 12 89° 36% - - 59° 98.7° 77.2° - - 1004.0
6/21 5:50pm 278 8 G 12 90° 35% - - 58° 98.7° 77.2° - - 1004.0
6/21 5:40pm 280 9 G 14 90° 35% - - 59° 98.7° 77.2° - - 1004.0
6/21 5:30pm 278 9 G 13 90° 34% - - 58° 98.7° 77.2° - - 1004.0
6/21 5:20pm 276 10 G 14 91° 33% - - 58° 98.7° 77.2° - - 1004.0
6/21 5:10pm 275 10 G 14 92° 30% - - 56° 98.7° 77.2° - - 1004.0
6/21 5:00pm 274 7 G 12 92° 31% - - 57° 98.7° 77.2° - - 1004.0
6/21 4:50pm 279 8 G 13 92° 33% - - 59° 98.7° 77.2° - - 1004.0
6/21 4:40pm 275 8 G 14 92° 34% - - 60° 98.7° 77.2° - - 1004.0
6/21 4:30pm 285 8 G 15 92° 34% - - 60° 98.7° 77.2° - - 1005.0
6/21 4:20pm 281 7 G 12 92° 34% - - 60° 98.7° 77.2° - - 1005.0
6/21 4:10pm 286 8 G 13 92° 34% - - 60° 98.7° 77.2° - - 1005.0
6/21 4:00pm 281 10 G 15 92° 34% - - 60° 98.7° 77.2° - - 1005.0
6/21 3:50pm 278 8 G 12 94° 32% - - 60° 98.7° 77.2° - - 1005.0
6/21 3:40pm 265 9 G 14 94° 32% - - 59° 98.7° 77.2° - - 1005.0
6/21 3:30pm 284 8 G 14 96° 31% - - 60° 98.7° 77.2° - - 1005.0
6/21 3:20pm 298 6 G 14 95° 31% - - 60° 98.7° 77.2° - - 1005.0
6/21 3:10pm 292 9 G 13 95° 32% - - 60° 98.7° 77.2° - - 1005.0
6/21 3:00pm 293 7 G 12 95° 32% - - 60° 98.7° 77.2° - - 1005.0
6/21 2:50pm 279 8 G 14 95° 31% - - 60° 98.7° 77.2° - - 1005.0
6/21 2:40pm 287 9 G 15 95° 32% - - 60° 98.7° 77.2° - - 1005.0
6/21 2:30pm 263 8 G 13 96° 29% - - 59° 98.7° 77.2° - - 1005.0
6/21 2:20pm 262 9 G 12 96° 29% - - 58° 98.7° 77.2° - - 1005.0
6/21 2:10pm 279 9 G 15 96° 28% - - 57° 98.7° 77.2° - - 1005.0
6/21 2:00pm 281 8 G 16 97° 25% - - 55° 98.7° 77.2° - - 1005.0
6/21 1:50pm 263 6 G 13 97° 25% - - 55° 98.7° 77.2° - - 1005.0
6/21 1:40pm 284 8 G 14 97° 24% - - 54° 98.5° 77.2° - - 1005.0
6/21 1:30pm 274 8 G 14 97° 23% - - 53° 98.4° 77.2° - - 1005.0
6/21 1:20pm 272 7 G 12 97° 23% - - 53° 98.4° 77.2° - - 1005.0
6/21 1:10pm 271 7 G 12 97° 23% - - 53° 98.4° 77.2° - - 1005.0
6/21 1:00pm 265 6 G 11 96° 23% - - 53° 97.2° 77.2° - - 1006.0
6/21 12:50pm 272 6 G 10 96° 23% - - 53° 97.2° 77.2° - - 1006.0
6/21 12:40pm 265 6 G 12 96° 24% - - 53° 97.2° 77.2° - - 1006.0
6/21 12:30pm 274 8 G 13 95° 25% - - 54° 96.3° 77.2° - - 1006.0
6/21 12:20pm 284 7 G 13 95° 26% - - 55° 96.3° 77.2° - - 1006.0
6/21 12:10pm 288 7 G 13 95° 26% - - 55° 96.2° 77.2° - - 1006.0
6/21 12:00pm 274 7 G 12 95° 26% - - 54° 96.2° 77.2° - - 1006.0
6/21 11:50am 284 6 G 11 95° 25% - - 54° 95.9° 77.2° - - 1006.0
6/21 11:40am 290 7 G 11 95° 25% - - 53° 95.9° 77.2° - - 1006.0
6/21 11:30am 284 7 G 12 94° 24% - - 52° 94.8° 77.2° - - 1006.0
6/21 11:20am 287 6 G 11 94° 25% - - 52° 94.7° 77.2° - - 1006.0
6/21 11:10am 294 5 G 10 93° 26% - - 53° 94.7° 77.2° - - 1006.0
6/21 11:00am 273 6 G 9 94° 26% - - 54° 94.7° 77.2° - - 1006.0
6/21 10:50am 282 5 G 10 92° 27% - - 54° 94° 77.2° - - 1007.0
6/21 10:40am 280 7 G 11 91° 29% - - 54° 94° 77.2° - - 1007.0
6/21 10:30am 280 7 G 10 91° 29% - - 55° 94° 77.2° - - 1007.0
6/21 10:20am 288 6 G 9 91° 30% - - 55° 94° 77.2° - - 1007.0
6/21 10:10am 277 6 G 9 91° 29% - - 54° 94° 77.2° - - 1007.0
6/21 10:00am 295 5 G 8 92° 27% - - 53° 94° 77.2° - - 1007.0
6/21 9:50am 247 2 G 8 93° 22% - - 49° 94° 77.2° - - 1006.0
6/21 9:40am 147 2 G 7 92° 23% - - 49° 92.9° 77.2° - - 1007.0
6/21 9:30am 151 3 G 5 91° 26% - - 52° 92.4° 77.2° - - 1007.0
6/21 9:20am 187 2 G 5 90° 27% - - 52° 91.2° 77.2° - - 1007.0
6/21 9:10am 157 2 G 5 90° 29% - - 53° 90.4° 77.2° - - 1007.0
6/21 9:00am 170 2 G 5 89° 30% - - 53° 89.9° 77.2° - - 1007.0
6/21 8:50am 206 2 G 4 88° 32% - - 54° 89.2° 77.2° - - 1007.0
6/21 8:40am 212 1 G 3 88° 31% - - 54° 89.2° 77.2° - - 1007.0
6/21 8:30am 97 1 G 3 87° 31% - - 53° 89° 77.2° - - 1007.0
6/21 8:20am 71 2 G 4 86° 33% - - 54° 86.9° 77.2° - - 1007.0
6/21 8:10am 97 2 G 3 85° 35% - - 54° 85.7° 77.2° - - 1007.0
6/21 8:00am 108 1 G 2 84° 36% - - 54° 84.3° 77.2° - - 1007.0
6/21 7:50am 90 1 G 2 83° 38% - - 54° 83.5° 77.2° - - 1007.0
6/21 7:40am 63 2 G 4 81° 37% - - 52° 83.5° 77.2° - - 1007.0
6/21 7:30am 70 2 G 4 81° 38% - - 53° 83.5° 77.2° - - 1008.0
6/21 7:20am 62 1 G 2 81° 37% - - 52° 83.5° 77.2° - - 1008.0
6/21 7:10am 69 0 G 2 82° 32% - - 50° 83.5° 77.2° - - 1007.0
6/21 7:00am 264 0 G 1 82° 32% - - 49° 83.5° 77.2° - - 1007.0
6/21 6:50am 12 1 G 2 82° 32% - - 49° 83.5° 77.2° - - 1007.0
6/21 6:40am 10 2 G 3 81° 32% - - 49° 83.5° 77.2° - - 1007.0
6/21 6:30am 36 2 G 3 80° 34% - - 49° 83.5° 77.2° - - 1008.0
6/21 6:20am 43 1 G 2 80° 34% - - 49° 83.5° 77.2° - - 1008.0
6/21 6:10am 5 1 G 2 82° 32% - - 49° 83.5° 77.2° - - 1007.0
6/21 6:00am 49 2 G 3 82° 31% - - 48° 83.5° 77.2° - - 1007.0
6/21 5:50am 53 3 G 5 81° 31% - - 47° 83.5° 77.2° - - 1007.0
6/21 5:40am 62 2 G 4 81° 30% - - 47° 83.5° 77.2° - - 1007.0
6/21 5:30am 56 3 G 4 80° 31% - - 47° 83.5° 77.2° - - 1007.0
6/21 5:20am 59 2 G 3 81° 33% - - 49° 83.5° 77.2° - - 1007.0
6/21 5:10am 41 2 G 3 79° 37% - - 51° 83.5° 77.2° - - 1007.0
6/21 5:00am 64 1 G 2 80° 36% - - 51° 83.5° 77.2° - - 1007.0
6/21 4:50am 88 0 G 1 81° 34% - - 50° 83.5° 77.2° - - 1007.0
6/21 4:40am 52 1 G 2 81° 35% - - 50° 83.5° 77.2° - - 1007.0
6/21 4:30am 47 2 G 2 81° 35% - - 50° 83.5° 77.2° - - 1007.0
6/21 4:20am 66 2 G 3 80° 34% - - 50° 83.5° 77.2° - - 1007.0
6/21 4:10am 64 2 G 3 80° 35% - - 50° 83.5° 77.2° - - 1008.0
6/21 4:00am 48 2 G 3 79° 37% - - 50° 83.5° 77.2° - - 1008.0
6/21 3:50am 337 1 G 3 80° 36% - - 51° 83.5° 78.3° - - 1008.0
6/21 3:40am 55 2 G 3 80° 36% - - 50° 83.5° 78.3° - - 1008.0
6/21 3:30am 64 1 G 2 81° 35% - - 51° 83.5° 78.3° - - 1008.0
6/21 3:20am 29 2 G 3 81° 36% - - 51° 83.5° 78.3° - - 1008.0
6/21 3:10am 47 1 G 1 81° 36% - - 51° 83.5° 78.3° - - 1008.0
6/21 3:00am 60 2 G 3 81° 36% - - 51° 83.5° 78.3° - - 1008.0
6/21 2:50am 47 1 G 3 81° 35% - - 51° 83.5° 78.3° - - 1008.0
6/21 2:40am 50 2 G 3 82° 35% - - 52° 83.5° 78.3° - - 1008.0
6/21 2:30am 32 1 G 2 81° 36% - - 52° 83.5° 78.3° - - 1008.0
6/21 2:20am 60 1 G 2 81° 36% - - 52° 83.5° 78.3° - - 1008.0
6/21 2:10am 38 2 G 3 80° 38% - - 52° 83.5° 78.3° - - 1008.0
6/21 2:00am 44 0 G 3 82° 36% - - 52° 83.5° 78.3° - - 1008.0
6/21 1:50am 70 1 G 2 82° 35% - - 52° 83.5° 78.3° - - 1008.0
6/21 1:40am 42 1 G 3 82° 36% - - 52° 83.5° 78.3° - - 1008.0
6/21 1:30am 29 1 G 2 82° 36% - - 52° 83.5° 78.3° - - 1008.0
6/21 1:20am 40 1 G 2 82° 37% - - 53° 83.5° 78.3° - - 1008.0
6/21 1:10am 16 1 G 2 82° 36% - - 53° 83.5° 78.3° - - 1008.0
6/21 1:00am 267 0 G 1 83° 35% - - 53° 83.5° 78.3° - - 1008.0
6/21 12:50am 23 1 G 2 83° 36% - - 53° 83.5° 78.3° - - 1008.0
6/21 12:40am 47 2 G 3 82° 36% - - 53° 83° 78.3° - - 1009.0
6/21 12:30am 36 2 G 3 82° 36% - - 52° 82.2° 78.3° - - 1009.0
6/21 12:20am 62 1 G 2 81° 38% - - 53° 82.1° 78.3° - - 1009.0
6/21 12:10am 55 1 G 2 80° 39% - - 52° 82.1° 78.3° - - 1009.0
6/21 12:00am 357 1 G 3 84° 35% - - 53° 99° 74° - - 1009.0
6/20 11:50pm 33 2 G 3 82° 35% - - 52° 99° 74° - - 1009.0
6/20 11:40pm 47 2 G 2 81° 36% - - 52° 99° 74° - - 1009.0
6/20 11:30pm 55 1 G 2 80° 37% - - 52° 99° 74° - - 1009.0
6/20 11:20pm 296 1 G 3 82° 35% - - 52° 99° 74° - - 1009.0
6/20 11:10pm 338 1 G 4 84° 33% - - 52° 99° 74° - - 1009.0
6/20 11:00pm 31 3 G 3 83° 34% - - 52° 99° 74° - - 1009.0
6/20 10:50pm 69 2 G 4 82° 36% - - 52° 99° 74° - - 1009.0
6/20 10:40pm 86 0 G 1 82° 35% - - 52° 99° 74° - - 1009.0
6/20 10:30pm 123 0 G 1 82° 35% - - 52° 99° 74° - - 1009.0
6/20 10:20pm 49 1 G 2 82° 35% - - 52° 99° 74° - - 1009.0
6/20 10:10pm 305 2 G 3 84° 33% - - 51° 99° 74° - - 1009.0
6/20 10:00pm 49 0 G 2 84° 32% - - 51° 99° 74° - - 1009.0
6/20 9:50pm 79 2 G 3 85° 31% - - 51° 99° 74° - - 1009.0
6/20 9:40pm 63 3 G 4 85° 31% - - 51° 99° 74° - - 1009.0
6/20 9:30pm 65 2 G 3 84° 32% - - 51° 99° 74° - - 1009.0
6/20 9:20pm 73 2 G 3 84° 32% - - 51° 99° 74° - - 1009.0
6/20 9:10pm 68 2 G 4 84° 32% - - 51° 99° 74° - - 1009.0
6/20 9:00pm 64 3 G 4 84° 32% - - 51° 99° 74° - - 1009.0
6/20 8:50pm 61 3 G 5 84° 32% - - 51° 99° 74° - - 1009.0
6/20 8:40pm 57 3 G 3 85° 30% - - 50° 99° 74° - - 1008.0
6/20 8:30pm 49 2 G 4 85° 30% - - 50° 99° 74° - - 1008.0
6/20 8:20pm 30 1 G 3 85° 29% - - 50° 99° 74° - - 1008.0
6/20 8:10pm 360 1 G 3 86° 29% - - 50° 99° 74° - - 1008.0
6/20 8:00pm 50 2 G 2 86° 29% - - 50° 99° 74° - - 1008.0
6/20 7:50pm 273 4 G 5 87° 26% - - 48° 99° 74° - - 1008.0
6/20 7:40pm 280 5 G 6 88° 26% - - 48° 99° 74° - - 1008.0
6/20 7:30pm 272 5 G 7 88° 25% - - 48° 99° 74° - - 1008.0
6/20 7:20pm 272 5 G 7 89° 26% - - 49° 99° 74° - - 1008.0
6/20 7:10pm 278 6 G 8 89° 25% - - 49° 99° 74° - - 1008.0
6/20 7:00pm 280 6 G 9 90° 26% - - 50° 99° 74° - - 1008.0
6/20 6:50pm 283 7 G 10 90° 26% - - 51° 99° 74° - - 1007.0
6/20 6:40pm 278 7 G 10 91° 26% - - 51° 99° 74° - - 1007.0
6/20 6:30pm 280 8 G 12 91° 25% - - 51° 99° 74° - - 1007.0
6/20 6:20pm 289 7 G 11 92° 25% - - 51° 99° 74° - - 1007.0
6/20 6:10pm 289 8 G 12 92° 25% - - 51° 99° 74° - - 1007.0
6/20 6:00pm 286 8 G 11 92° 26% - - 52° 99° 74° - - 1007.0